createdAt,value
2023-03-02T00:01:49.887Z,17.00
2023-03-02T00:04:20.779Z,17.10
2023-03-02T00:06:49.047Z,16.90
2023-03-02T00:09:15.793Z,16.90
2023-03-02T00:11:42.386Z,16.90
2023-03-02T00:14:09.053Z,16.90
2023-03-02T00:16:35.657Z,16.90
2023-03-02T00:19:02.465Z,16.90
2023-03-02T00:21:29.056Z,16.90
2023-03-02T00:23:55.701Z,16.90
2023-03-02T00:26:22.239Z,16.80
2023-03-02T00:28:49.017Z,16.90
2023-03-02T00:31:15.649Z,16.90
2023-03-02T00:33:42.309Z,16.80
2023-03-02T00:36:16.003Z,16.80
2023-03-02T00:38:42.687Z,16.90
2023-03-02T00:41:10.255Z,16.80
2023-03-02T00:43:36.818Z,16.80
2023-03-02T00:46:13.632Z,16.80
2023-03-02T00:48:40.397Z,16.80
2023-03-02T00:51:07.349Z,16.80
2023-03-02T00:53:34.540Z,16.80
2023-03-02T00:56:01.332Z,16.80
2023-03-02T00:58:28.230Z,16.80
2023-03-02T01:00:54.803Z,16.90
2023-03-02T01:03:21.429Z,16.90
2023-03-02T01:05:48.472Z,17.00
2023-03-02T01:08:15.298Z,17.00
2023-03-02T01:10:41.940Z,17.00
2023-03-02T01:13:08.528Z,17.00
2023-03-02T01:15:35.281Z,17.00
2023-03-02T01:18:01.905Z,17.00
2023-03-02T01:20:28.509Z,17.00
2023-03-02T01:22:55.336Z,17.30
2023-03-02T01:25:21.914Z,17.00
2023-03-02T01:27:48.598Z,17.00
2023-03-02T01:30:16.222Z,17.00
2023-03-02T01:32:42.787Z,17.00
2023-03-02T01:35:09.594Z,16.90
2023-03-02T01:37:36.175Z,17.00
2023-03-02T01:40:06.404Z,16.90
2023-03-02T01:42:40.326Z,16.90
2023-03-02T01:45:27.379Z,16.90
2023-03-02T01:47:53.982Z,16.90
2023-03-02T01:50:26.180Z,16.90
2023-03-02T01:52:53.698Z,16.90
2023-03-02T01:55:24.684Z,16.90
2023-03-02T01:57:52.072Z,16.90
2023-03-02T02:00:22.472Z,16.90
2023-03-02T02:02:49.442Z,16.90
2023-03-02T02:05:19.648Z,16.90
2023-03-02T02:07:46.437Z,16.90
2023-03-02T02:10:13.402Z,16.90
2023-03-02T02:12:39.979Z,16.90
2023-03-02T02:15:06.931Z,16.90
2023-03-02T02:17:33.632Z,16.90
2023-03-02T02:20:07.332Z,17.60
2023-03-02T02:22:37.041Z,16.90
2023-03-02T02:25:05.646Z,16.90
2023-03-02T02:27:33.735Z,16.90
2023-03-02T02:30:02.853Z,17.50
2023-03-02T02:32:31.707Z,16.90
2023-03-02T02:35:10.637Z,17.10
2023-03-02T02:37:48.753Z,16.90
2023-03-02T02:40:17.788Z,16.90
2023-03-02T02:42:45.928Z,16.90
2023-03-02T02:45:25.952Z,17.40
2023-03-02T02:47:53.164Z,16.90
2023-03-02T02:50:21.857Z,16.80
2023-03-02T02:52:55.818Z,16.80
2023-03-02T02:55:23.370Z,16.90
2023-03-02T02:57:51.896Z,16.80
2023-03-02T03:00:19.389Z,16.80
2023-03-02T03:02:47.523Z,16.80
2023-03-02T03:05:17.308Z,16.80
2023-03-02T03:07:43.921Z,16.90
2023-03-02T03:10:35.000Z,16.90
2023-03-02T03:13:02.354Z,17.00
2023-03-02T03:15:28.920Z,17.00
2023-03-02T03:17:56.741Z,17.30
2023-03-02T03:20:23.930Z,17.00
2023-03-02T03:22:53.463Z,17.00
2023-03-02T03:25:20.662Z,17.00
2023-03-02T03:27:47.239Z,17.00
2023-03-02T03:30:14.727Z,17.00
2023-03-02T03:32:41.459Z,17.00
2023-03-02T03:35:11.472Z,17.00
2023-03-02T03:37:39.799Z,17.00
2023-03-02T03:40:07.188Z,16.90
2023-03-02T03:42:33.790Z,16.90
2023-03-02T03:45:01.115Z,17.10
2023-03-02T03:47:27.756Z,16.90
2023-03-02T03:49:54.352Z,16.90
2023-03-02T03:52:30.724Z,16.90
2023-03-02T03:54:59.532Z,16.90
2023-03-02T03:57:26.800Z,16.90
2023-03-02T03:59:53.939Z,16.90
2023-03-02T04:02:21.306Z,16.90
2023-03-02T04:04:47.954Z,16.90
2023-03-02T04:07:14.590Z,16.90
2023-03-02T04:09:41.207Z,16.90
2023-03-02T04:12:08.236Z,16.90
2023-03-02T04:14:34.885Z,16.90
2023-03-02T04:17:01.530Z,16.90
2023-03-02T04:19:28.079Z,16.90
2023-03-02T04:21:54.956Z,16.90
2023-03-02T04:24:22.311Z,17.50
2023-03-02T04:26:49.361Z,16.90
2023-03-02T04:29:16.448Z,16.90
2023-03-02T04:31:43.348Z,16.80
2023-03-02T04:34:10.153Z,16.90
2023-03-02T04:36:38.193Z,16.80
2023-03-02T04:39:05.369Z,16.90
2023-03-02T04:41:31.944Z,16.90
2023-03-02T04:43:58.717Z,16.80
2023-03-02T04:46:25.915Z,17.20
2023-03-02T04:48:52.770Z,16.80
2023-03-02T04:51:24.221Z,16.80
2023-03-02T04:53:51.712Z,17.00
2023-03-02T04:56:18.275Z,16.80
2023-03-02T04:58:44.848Z,16.80
2023-03-02T05:01:12.244Z,16.80
2023-03-02T05:03:38.818Z,16.80
2023-03-02T05:06:05.743Z,16.90
2023-03-02T05:08:32.457Z,16.80
2023-03-02T05:10:59.150Z,16.80
2023-03-02T05:13:26.363Z,16.80
2023-03-02T05:15:53.600Z,16.80
2023-03-02T05:18:20.651Z,16.90
2023-03-02T05:20:47.269Z,16.90
2023-03-02T05:23:25.300Z,17.00
2023-03-02T05:25:53.258Z,17.00
2023-03-02T05:28:20.301Z,17.00
2023-03-02T05:30:47.334Z,17.00
2023-03-02T05:33:14.633Z,17.10
2023-03-02T05:35:41.442Z,17.00
2023-03-02T05:38:08.098Z,17.00
2023-03-02T05:40:35.342Z,17.00
2023-03-02T05:43:02.030Z,17.00
2023-03-02T05:45:30.483Z,17.00
2023-03-02T05:47:57.455Z,17.00
2023-03-02T05:50:24.049Z,17.00
2023-03-02T05:52:50.653Z,17.00
2023-03-02T05:55:18.125Z,17.00
2023-03-02T05:57:44.989Z,16.90
2023-03-02T06:00:12.869Z,16.90
2023-03-02T06:02:39.991Z,16.90
2023-03-02T06:05:07.805Z,16.90
2023-03-02T06:07:34.421Z,16.90
2023-03-02T06:10:00.999Z,16.90
2023-03-02T06:12:27.757Z,16.90
2023-03-02T06:14:54.392Z,16.90
2023-03-02T06:17:20.975Z,16.90
2023-03-02T06:19:47.558Z,16.90
2023-03-02T06:22:14.113Z,16.80
2023-03-02T06:24:40.677Z,16.80
2023-03-02T06:27:07.275Z,16.80
2023-03-02T06:29:33.830Z,16.80
2023-03-02T06:32:00.556Z,16.80
2023-03-02T06:34:29.331Z,16.80
2023-03-02T06:36:55.910Z,16.80
2023-03-02T06:39:22.739Z,16.80
2023-03-02T06:41:49.672Z,16.80
2023-03-02T06:44:16.817Z,16.80
2023-03-02T06:46:44.007Z,16.80
2023-03-02T06:49:12.999Z,16.80
2023-03-02T06:51:40.709Z,16.90
2023-03-02T06:54:08.213Z,16.90
2023-03-02T06:56:35.446Z,16.90
2023-03-02T06:59:02.276Z,16.90
2023-03-02T07:01:33.056Z,17.10
2023-03-02T07:03:59.914Z,17.10
2023-03-02T07:06:26.539Z,17.10
2023-03-02T07:08:53.143Z,17.10
2023-03-02T07:11:19.683Z,17.10
2023-03-02T07:13:46.342Z,17.20
2023-03-02T07:16:13.728Z,17.50
2023-03-02T07:18:40.318Z,17.20
2023-03-02T07:21:06.902Z,17.20
2023-03-02T07:23:33.889Z,17.20
2023-03-02T07:26:00.818Z,17.20
2023-03-02T07:28:27.492Z,17.10
2023-03-02T07:30:54.164Z,17.10
2023-03-02T07:33:21.374Z,17.10
2023-03-02T07:35:48.363Z,17.10
2023-03-02T07:38:15.075Z,17.00
2023-03-02T07:40:41.998Z,17.10
2023-03-02T07:43:08.948Z,17.10
2023-03-02T07:45:35.589Z,17.10
2023-03-02T07:48:02.235Z,17.00
2023-03-02T07:50:28.844Z,17.00
2023-03-02T07:52:55.421Z,17.00
2023-03-02T07:55:21.977Z,16.90
2023-03-02T07:57:48.533Z,16.90
2023-03-02T08:00:16.075Z,16.90
2023-03-02T08:02:42.850Z,16.90
2023-03-02T08:05:10.174Z,16.80
2023-03-02T08:07:36.842Z,16.80
2023-03-02T08:10:03.928Z,16.80
2023-03-02T08:12:30.546Z,16.80
2023-03-02T08:14:57.190Z,16.80
2023-03-02T08:17:23.858Z,16.80
2023-03-02T08:19:50.699Z,16.80
2023-03-02T08:22:17.372Z,16.80
2023-03-02T08:24:43.947Z,16.80
2023-03-02T08:27:13.032Z,17.00
2023-03-02T08:29:39.747Z,17.00
2023-03-02T08:32:06.934Z,17.00
2023-03-02T08:34:33.560Z,17.00
2023-03-02T08:37:00.127Z,17.10
2023-03-02T08:39:30.203Z,17.10
2023-03-02T08:41:56.883Z,17.10
2023-03-02T08:44:23.766Z,17.10
2023-03-02T08:46:50.764Z,17.00
2023-03-02T08:49:18.047Z,17.30
2023-03-02T08:51:45.340Z,17.00
2023-03-02T08:54:11.985Z,17.00
2023-03-02T08:56:39.211Z,16.90
2023-03-02T08:59:07.207Z,16.90
2023-03-02T09:01:36.160Z,16.90
2023-03-02T09:04:03.905Z,16.90
2023-03-02T09:06:33.319Z,17.00
2023-03-02T09:09:00.028Z,16.80
2023-03-02T09:11:26.673Z,16.80
2023-03-02T09:13:54.557Z,16.80
2023-03-02T09:16:21.241Z,16.80
2023-03-02T09:18:47.850Z,16.80
2023-03-02T09:21:14.399Z,16.80
2023-03-02T09:23:41.015Z,16.80
2023-03-02T09:26:07.653Z,16.80
2023-03-02T09:28:34.540Z,16.80
2023-03-02T09:31:02.707Z,16.80
2023-03-02T09:33:30.072Z,16.80
2023-03-02T09:35:56.685Z,16.80
2023-03-02T09:38:23.712Z,16.80
2023-03-02T09:40:52.225Z,16.70
2023-03-02T09:43:28.045Z,16.70
2023-03-02T09:46:16.636Z,16.80
2023-03-02T09:48:43.200Z,16.80
2023-03-02T09:51:16.091Z,16.70
2023-03-02T09:53:46.447Z,16.80
2023-03-02T09:56:15.798Z,16.80
2023-03-02T09:58:45.179Z,16.80
2023-03-02T10:01:16.168Z,16.80
2023-03-02T10:03:47.421Z,16.80
2023-03-02T10:06:14.149Z,16.80
2023-03-02T10:08:43.348Z,16.80
2023-03-02T10:11:28.282Z,16.90
2023-03-02T10:13:59.536Z,17.00
2023-03-02T10:16:29.766Z,17.10
2023-03-02T10:19:08.697Z,17.10
2023-03-02T10:21:38.308Z,17.20
2023-03-02T10:24:29.177Z,17.30
2023-03-02T10:26:59.040Z,17.20
2023-03-02T10:29:46.762Z,17.20
2023-03-02T10:32:18.084Z,17.10
2023-03-02T10:34:44.656Z,17.10
2023-03-02T10:37:16.028Z,17.10
2023-03-02T10:39:42.630Z,17.00
2023-03-02T10:42:29.530Z,17.00
2023-03-02T10:44:57.606Z,17.00
2023-03-02T10:47:25.501Z,17.00
2023-03-02T10:49:53.335Z,17.00
2023-03-02T10:52:21.301Z,17.00
2023-03-02T10:54:48.251Z,17.00
2023-03-02T10:57:34.404Z,16.90
2023-03-02T11:00:02.487Z,16.90
2023-03-02T11:02:29.792Z,17.00
2023-03-02T11:04:57.589Z,16.90
2023-03-02T11:07:25.716Z,16.90
2023-03-02T11:10:03.451Z,16.90
2023-03-02T11:12:30.686Z,16.90
2023-03-02T11:15:12.679Z,16.90
2023-03-02T11:17:40.648Z,16.90
2023-03-02T11:20:13.311Z,16.80
2023-03-02T11:22:45.258Z,16.80
2023-03-02T11:25:16.395Z,17.10
2023-03-02T11:27:44.310Z,16.80
2023-03-02T11:30:11.065Z,16.80
2023-03-02T11:32:41.828Z,16.80
2023-03-02T11:35:27.341Z,16.80
2023-03-02T11:37:55.625Z,16.80
2023-03-02T11:40:31.545Z,16.80
2023-03-02T11:42:59.208Z,16.80
2023-03-02T11:45:30.963Z,16.80
2023-03-02T11:48:08.807Z,16.70
2023-03-02T11:50:38.635Z,16.70
2023-03-02T11:53:07.347Z,16.70
2023-03-02T11:55:39.003Z,16.70
2023-03-02T11:58:06.031Z,16.70
2023-03-02T12:00:36.475Z,16.70
2023-03-02T12:03:05.072Z,16.70
2023-03-02T12:05:35.634Z,16.70
2023-03-02T12:08:07.020Z,16.80
2023-03-02T12:10:43.696Z,17.30
2023-03-02T12:13:16.414Z,16.70
2023-03-02T12:15:45.260Z,16.70
2023-03-02T12:18:20.714Z,16.70
2023-03-02T12:21:01.104Z,16.80
2023-03-02T12:23:28.058Z,16.90
2023-03-02T12:26:21.316Z,16.90
2023-03-02T12:29:02.571Z,16.90
2023-03-02T12:31:48.115Z,16.90
2023-03-02T12:34:24.067Z,16.90
2023-03-02T12:36:52.191Z,16.70
2023-03-02T12:39:43.340Z,16.90
2023-03-02T12:42:32.191Z,16.90
2023-03-02T12:45:14.901Z,16.90
2023-03-02T12:47:44.407Z,16.90
2023-03-02T12:50:17.531Z,16.90
2023-03-02T12:52:44.107Z,16.80
2023-03-02T12:55:18.970Z,16.80
2023-03-02T12:57:56.415Z,16.80
2023-03-02T13:00:24.979Z,16.70
2023-03-02T13:02:52.915Z,16.70
2023-03-02T13:05:21.286Z,16.90
2023-03-02T13:07:59.761Z,16.70
2023-03-02T13:10:29.697Z,16.70
2023-03-02T13:12:57.306Z,16.70
2023-03-02T13:15:23.901Z,17.00
2023-03-02T13:17:58.334Z,16.60
2023-03-02T13:20:29.087Z,16.60
2023-03-02T13:22:55.974Z,16.60
2023-03-02T13:25:30.012Z,16.60
2023-03-02T13:27:57.851Z,16.60
2023-03-02T13:30:26.534Z,16.80
2023-03-02T13:32:55.551Z,16.60
2023-03-02T13:35:27.155Z,16.60
2023-03-02T13:38:04.857Z,16.60
2023-03-02T13:40:31.527Z,16.60
2023-03-02T13:42:58.123Z,16.60
2023-03-02T13:45:27.907Z,16.60
2023-03-02T13:47:55.563Z,16.60
2023-03-02T13:50:23.556Z,16.60
2023-03-02T13:52:50.300Z,16.60
2023-03-02T13:55:18.186Z,16.50
2023-03-02T13:57:48.075Z,16.60
2023-03-02T14:00:26.880Z,16.60
2023-03-02T14:02:53.521Z,16.50
2023-03-02T14:05:21.932Z,16.50
2023-03-02T14:07:48.874Z,16.60
2023-03-02T14:10:17.119Z,16.50
2023-03-02T14:12:48.996Z,16.50
2023-03-02T14:15:16.380Z,16.60
2023-03-02T14:17:43.451Z,16.60
2023-03-02T14:20:14.557Z,16.70
2023-03-02T14:22:41.711Z,16.70
2023-03-02T14:25:08.576Z,16.90
2023-03-02T14:27:35.265Z,16.70
2023-03-02T14:30:02.088Z,16.60
2023-03-02T14:32:29.243Z,16.70
2023-03-02T14:34:55.847Z,16.60
2023-03-02T14:37:25.419Z,16.80
2023-03-02T14:39:54.294Z,16.60
2023-03-02T14:42:22.003Z,16.60
2023-03-02T14:44:49.920Z,16.70
2023-03-02T14:47:18.421Z,16.70
2023-03-02T14:49:45.069Z,16.70
2023-03-02T14:52:18.935Z,16.70
2023-03-02T14:54:56.268Z,16.60
2023-03-02T14:57:25.345Z,16.70
2023-03-02T14:59:52.862Z,16.70
2023-03-02T15:02:25.576Z,16.60
2023-03-02T15:04:55.996Z,16.60
2023-03-02T15:07:23.485Z,16.70
2023-03-02T15:09:50.033Z,16.60
2023-03-02T15:12:16.615Z,16.60
2023-03-02T15:14:43.884Z,16.50
2023-03-02T15:17:10.762Z,16.50
2023-03-02T15:19:37.330Z,16.50
2023-03-02T15:22:04.185Z,16.80
2023-03-02T15:24:33.188Z,16.50
2023-03-02T15:27:00.405Z,16.50
2023-03-02T15:29:26.978Z,16.50
2023-03-02T15:31:53.789Z,16.50
2023-03-02T15:34:20.789Z,16.50
2023-03-02T15:36:47.373Z,16.50
2023-03-02T15:39:14.379Z,16.50
2023-03-02T15:41:44.045Z,16.50
2023-03-02T15:44:21.670Z,16.50
2023-03-02T15:46:52.886Z,16.50
2023-03-02T15:49:24.790Z,16.50
2023-03-02T15:51:52.066Z,16.50
2023-03-02T15:54:19.091Z,16.50
2023-03-02T15:56:49.476Z,16.50
2023-03-02T15:59:16.145Z,16.50
2023-03-02T16:01:42.704Z,16.60
2023-03-02T16:04:09.493Z,16.60
2023-03-02T16:06:36.059Z,16.60
2023-03-02T16:09:03.313Z,16.70
2023-03-02T16:11:29.890Z,16.70
2023-03-02T16:13:56.602Z,16.70
2023-03-02T16:16:23.376Z,16.70
2023-03-02T16:18:50.563Z,16.70
2023-03-02T16:21:17.233Z,16.70
2023-03-02T16:23:43.750Z,16.70
2023-03-02T16:26:11.255Z,16.60
2023-03-02T16:28:38.056Z,16.60
2023-03-02T16:31:08.520Z,16.60
2023-03-02T16:33:35.499Z,16.60
2023-03-02T16:36:02.061Z,16.60
2023-03-02T16:38:28.698Z,16.60
2023-03-02T16:40:57.099Z,16.60
2023-03-02T16:43:24.440Z,16.60
2023-03-02T16:45:51.661Z,16.50
2023-03-02T16:48:18.381Z,16.50
2023-03-02T16:50:44.949Z,16.50
2023-03-02T16:53:13.422Z,16.50
2023-03-02T16:55:40.204Z,16.50
2023-03-02T16:58:06.773Z,16.50
2023-03-02T17:00:33.395Z,16.50
2023-03-02T17:03:00.758Z,16.50
2023-03-02T17:05:27.350Z,16.50
2023-03-02T17:07:54.873Z,16.50
2023-03-02T17:10:21.545Z,16.50
2023-03-02T17:12:48.155Z,16.50
2023-03-02T17:15:14.970Z,16.50
2023-03-02T17:17:42.358Z,16.50
2023-03-02T17:20:10.951Z,16.50
2023-03-02T17:22:37.770Z,16.50
2023-03-02T17:25:05.017Z,16.50
2023-03-02T17:27:31.625Z,16.40
2023-03-02T17:29:58.259Z,16.40
2023-03-02T17:32:24.894Z,16.50
2023-03-02T17:34:51.522Z,16.60
2023-03-02T17:37:18.290Z,16.60
2023-03-02T17:39:44.905Z,16.70
2023-03-02T17:42:11.572Z,16.70
2023-03-02T17:44:38.611Z,16.70
2023-03-02T17:47:06.409Z,16.70
2023-03-02T17:49:32.991Z,16.70
2023-03-02T17:51:59.569Z,16.60
2023-03-02T17:54:26.389Z,16.60
2023-03-02T17:56:52.949Z,16.60
2023-03-02T17:59:19.563Z,16.60
2023-03-02T18:01:46.133Z,16.60
2023-03-02T18:04:12.839Z,16.60
2023-03-02T18:06:39.501Z,16.60
2023-03-02T18:09:06.064Z,16.60
2023-03-02T18:11:32.686Z,16.60
2023-03-02T18:13:59.245Z,16.60
2023-03-02T18:16:27.804Z,16.60
2023-03-02T18:18:54.878Z,16.60
2023-03-02T18:21:21.907Z,16.60
2023-03-02T18:23:48.761Z,16.60
2023-03-02T18:26:15.571Z,16.60
2023-03-02T18:28:42.644Z,16.50
2023-03-02T18:31:11.250Z,16.50
2023-03-02T18:33:37.893Z,16.50
2023-03-02T18:36:05.417Z,16.50
2023-03-02T18:38:33.120Z,16.60
2023-03-02T18:41:00.840Z,16.60
2023-03-02T18:43:28.029Z,16.70
2023-03-02T18:45:54.701Z,16.80
2023-03-02T18:48:21.539Z,16.90
2023-03-02T18:50:48.607Z,16.90
2023-03-02T18:53:15.299Z,16.90
2023-03-02T18:55:41.963Z,17.00
2023-03-02T18:58:13.556Z,17.00
2023-03-02T19:00:41.293Z,17.00
2023-03-02T19:03:07.862Z,17.10
2023-03-02T19:05:34.499Z,17.10
2023-03-02T19:08:02.690Z,17.10
2023-03-02T19:10:29.302Z,17.10
2023-03-02T19:12:55.962Z,17.00
2023-03-02T19:15:22.525Z,16.90
2023-03-02T19:17:49.399Z,16.90
2023-03-02T19:20:18.435Z,16.90
2023-03-02T19:22:44.972Z,16.90
2023-03-02T19:25:11.749Z,16.80
2023-03-02T19:27:38.326Z,16.80
2023-03-02T19:30:05.660Z,16.80
2023-03-02T19:32:32.226Z,16.80
2023-03-02T19:34:59.568Z,16.80
2023-03-02T19:37:26.220Z,16.80
2023-03-02T19:39:53.351Z,16.70
2023-03-02T19:42:19.922Z,16.70
2023-03-02T19:44:46.469Z,16.70
2023-03-02T19:47:13.027Z,16.70
2023-03-02T19:49:39.683Z,16.70
2023-03-02T19:52:06.223Z,16.70
2023-03-02T19:54:32.766Z,16.60
2023-03-02T19:56:59.406Z,16.60
2023-03-02T19:59:26.835Z,16.60
2023-03-02T20:01:55.067Z,16.60
2023-03-02T20:04:21.699Z,16.60
2023-03-02T20:06:48.288Z,16.60
2023-03-02T20:09:19.558Z,16.60
2023-03-02T20:11:49.258Z,16.60
2023-03-02T20:14:27.818Z,16.60
2023-03-02T20:17:00.164Z,16.60
2023-03-02T20:19:26.710Z,16.60
2023-03-02T20:21:53.281Z,16.60
2023-03-02T20:24:19.975Z,16.60
2023-03-02T20:26:46.874Z,16.60
2023-03-02T20:29:14.019Z,16.60
2023-03-02T20:31:40.989Z,16.60
2023-03-02T20:34:09.390Z,16.60
2023-03-02T20:36:36.722Z,16.60
2023-03-02T20:39:03.297Z,16.60
2023-03-02T20:41:30.867Z,16.60
2023-03-02T20:43:57.457Z,16.60
2023-03-02T20:46:28.963Z,16.60
2023-03-02T20:48:55.822Z,16.60
2023-03-02T20:51:22.818Z,16.60
2023-03-02T20:53:49.864Z,16.60
2023-03-02T20:56:18.243Z,16.60
2023-03-02T20:58:45.024Z,16.70
2023-03-02T21:01:12.173Z,16.70
2023-03-02T21:03:39.360Z,16.80
2023-03-02T21:06:07.283Z,16.80
2023-03-02T21:08:38.672Z,16.80
2023-03-02T21:11:06.321Z,16.80
2023-03-02T21:13:33.378Z,16.80
2023-03-02T21:16:00.053Z,16.80
2023-03-02T21:18:26.747Z,16.80
2023-03-02T21:20:53.313Z,16.70
2023-03-02T21:23:19.870Z,16.80
2023-03-02T21:25:47.253Z,16.70
2023-03-02T21:28:13.838Z,16.70
2023-03-02T21:30:40.400Z,16.70
2023-03-02T21:33:07.229Z,16.70
2023-03-02T21:35:33.814Z,16.70
2023-03-02T21:38:04.075Z,16.70
2023-03-02T21:40:32.738Z,16.70
2023-03-02T21:43:00.385Z,16.70
2023-03-02T21:45:27.514Z,16.70
2023-03-02T21:47:54.261Z,16.80
2023-03-02T21:50:22.692Z,16.70
2023-03-02T21:52:49.468Z,16.70
2023-03-02T21:55:16.111Z,16.70
2023-03-02T21:57:43.052Z,16.60
2023-03-02T22:00:10.371Z,16.70
2023-03-02T22:02:37.282Z,16.60
2023-03-02T22:05:04.680Z,16.60
2023-03-02T22:07:31.584Z,16.60
2023-03-02T22:09:58.234Z,16.60
2023-03-02T22:12:24.862Z,16.60
2023-03-02T22:14:52.974Z,16.60
2023-03-02T22:17:21.393Z,16.70
2023-03-02T22:19:48.554Z,16.60
2023-03-02T22:22:21.859Z,16.60
2023-03-02T22:24:49.589Z,16.60
2023-03-02T22:27:16.106Z,16.60
2023-03-02T22:29:44.184Z,16.60
2023-03-02T22:32:19.969Z,16.60
2023-03-02T22:34:47.714Z,16.60
2023-03-02T22:37:17.562Z,16.60
2023-03-02T22:39:44.469Z,16.50
2023-03-02T22:42:16.334Z,16.60
2023-03-02T22:44:43.815Z,16.60
2023-03-02T22:47:15.391Z,16.60
2023-03-02T22:49:42.238Z,16.60
2023-03-02T22:52:17.456Z,16.50
2023-03-02T22:54:45.624Z,16.60
2023-03-02T22:57:17.973Z,16.60
2023-03-02T22:59:44.583Z,16.60
2023-03-02T23:02:17.447Z,16.70
2023-03-02T23:04:45.261Z,16.70
2023-03-02T23:07:20.061Z,16.80
2023-03-02T23:09:46.865Z,16.80
2023-03-02T23:12:23.624Z,16.80
2023-03-02T23:14:51.679Z,16.80
2023-03-02T23:17:22.745Z,16.80
2023-03-02T23:19:51.309Z,16.80
2023-03-02T23:22:17.951Z,16.90
2023-03-02T23:24:44.533Z,16.80
2023-03-02T23:27:11.496Z,16.80
2023-03-02T23:29:38.341Z,16.80
2023-03-02T23:32:05.224Z,16.80
2023-03-02T23:34:31.843Z,16.70
2023-03-02T23:36:58.982Z,16.70
2023-03-02T23:39:25.815Z,16.70
2023-03-02T23:41:52.637Z,16.70
2023-03-02T23:44:19.534Z,16.70
2023-03-02T23:46:46.342Z,16.70
2023-03-02T23:49:12.943Z,16.70
2023-03-02T23:51:40.142Z,16.70
2023-03-02T23:54:07.261Z,16.70
2023-03-02T23:56:33.981Z,16.70
2023-03-02T23:59:00.575Z,16.70
